sensor_id;sensor_type;location;lat;lon;timestamp;P1;durP1;ratioP1;P2;durP2;ratioP2
64018;SDS011;66942;52.138;5.216;2023-03-18T00:01:32;15.5;;;14.1;;
64018;SDS011;66942;52.138;5.216;2023-03-18T00:03:08;14.1;;;12.9;;
64018;SDS011;66942;52.138;5.216;2023-03-18T00:04:45;14.2;;;13.0;;
64018;SDS011;66942;52.138;5.216;2023-03-18T00:07:57;15.6;;;14.3;;
64018;SDS011;66942;52.138;5.216;2023-03-18T00:09:33;16.61;;;14.9;;
64018;SDS011;66942;52.138;5.216;2023-03-18T00:11:10;15.2;;;13.9;;
64018;SDS011;66942;52.138;5.216;2023-03-18T00:14:25;15.1;;;13.8;;
64018;SDS011;66942;52.138;5.216;2023-03-18T00:16:02;16.61;;;15.1;;
64018;SDS011;66942;52.138;5.216;2023-03-18T00:17:41;15.8;;;14.4;;
64018;SDS011;66942;52.138;5.216;2023-03-18T00:19:17;14.9;;;13.6;;
64018;SDS011;66942;52.138;5.216;2023-03-18T00:22:29;15.7;;;14.4;;
64018;SDS011;66942;52.138;5.216;2023-03-18T00:24:07;16.0;;;14.5;;
64018;SDS011;66942;52.138;5.216;2023-03-18T00:25:45;15.0;;;13.6;;
64018;SDS011;66942;52.138;5.216;2023-03-18T00:28:58;15.1;;;13.5;;
64018;SDS011;66942;52.138;5.216;2023-03-18T00:30:36;15.0;;;13.7;;
64018;SDS011;66942;52.138;5.216;2023-03-18T00:32:14;14.3;;;13.1;;
64018;SDS011;66942;52.138;5.216;2023-03-18T00:33:50;16.11;;;14.5;;
64018;SDS011;66942;52.138;5.216;2023-03-18T00:37:03;13.9;;;12.7;;
64018;SDS011;66942;52.138;5.216;2023-03-18T00:38:39;14.4;;;13.3;;
64018;SDS011;66942;52.138;5.216;2023-03-18T00:40:16;16.3;;;14.9;;
64018;SDS011;66942;52.138;5.216;2023-03-18T00:43:30;16.2;;;14.5;;
64018;SDS011;66942;52.138;5.216;2023-03-18T00:45:07;15.1;;;13.9;;
64018;SDS011;66942;52.138;5.216;2023-03-18T00:46:45;15.3;;;13.9;;
64018;SDS011;66942;52.138;5.216;2023-03-18T00:49:59;15.9;;;14.6;;
64018;SDS011;66942;52.138;5.216;2023-03-18T00:51:35;15.9;;;14.6;;
64018;SDS011;66942;52.138;5.216;2023-03-18T00:53:12;16.5;;;14.8;;
64018;SDS011;66942;52.138;5.216;2023-03-18T00:54:48;16.2;;;14.6;;
64018;SDS011;66942;52.138;5.216;2023-03-18T00:58:04;16.3;;;14.9;;
64018;SDS011;66942;52.138;5.216;2023-03-18T00:59:40;16.3;;;15.0;;
64018;SDS011;66942;52.138;5.216;2023-03-18T01:01:16;15.3;;;14.0;;
64018;SDS011;66942;52.138;5.216;2023-03-18T01:04:30;16.0;;;14.7;;
64018;SDS011;66942;52.138;5.216;2023-03-18T01:06:08;16.3;;;14.9;;
64018;SDS011;66942;52.138;5.216;2023-03-18T01:07:46;16.9;;;15.2;;
64018;SDS011;66942;52.138;5.216;2023-03-18T01:09:22;17.0;;;15.4;;
64018;SDS011;66942;52.138;5.216;2023-03-18T01:12:35;15.9;;;14.6;;
64018;SDS011;66942;52.138;5.216;2023-03-18T01:14:11;15.0;;;13.6;;
64018;SDS011;66942;52.138;5.216;2023-03-18T01:15:47;16.61;;;15.0;;
64018;SDS011;66942;52.138;5.216;2023-03-18T01:18:59;16.2;;;14.8;;
64018;SDS011;66942;52.138;5.216;2023-03-18T01:20:36;15.1;;;13.9;;
64018;SDS011;66942;52.138;5.216;2023-03-18T01:22:12;16.61;;;15.2;;
64018;SDS011;66942;52.138;5.216;2023-03-18T01:25:25;16.2;;;14.8;;
64018;SDS011;66942;52.138;5.216;2023-03-18T01:27:01;16.2;;;14.8;;
64018;SDS011;66942;52.138;5.216;2023-03-18T01:28:38;15.3;;;14.0;;
64018;SDS011;66942;52.138;5.216;2023-03-18T01:30:15;15.5;;;14.3;;
64018;SDS011;66942;52.138;5.216;2023-03-18T01:33:27;16.61;;;15.3;;
64018;SDS011;66942;52.138;5.216;2023-03-18T01:35:04;15.3;;;13.9;;
64018;SDS011;66942;52.138;5.216;2023-03-18T01:36:41;14.1;;;13.0;;
64018;SDS011;66942;52.138;5.216;2023-03-18T01:39:54;15.0;;;13.7;;
64018;SDS011;66942;52.138;5.216;2023-03-18T01:41:30;16.0;;;14.6;;
64018;SDS011;66942;52.138;5.216;2023-03-18T01:43:11;15.7;;;14.3;;
64018;SDS011;66942;52.138;5.216;2023-03-18T01:45:08;14.9;;;13.7;;
64018;SDS011;66942;52.138;5.216;2023-03-18T01:48:29;15.1;;;13.8;;
64018;SDS011;66942;52.138;5.216;2023-03-18T01:50:10;16.2;;;14.8;;
64018;SDS011;66942;52.138;5.216;2023-03-18T01:51:49;17.3;;;15.7;;
64018;SDS011;66942;52.138;5.216;2023-03-18T01:53:34;16.61;;;15.1;;
64018;SDS011;66942;52.138;5.216;2023-03-18T01:56:57;15.8;;;14.5;;
64018;SDS011;66942;52.138;5.216;2023-03-18T01:58:36;17.61;;;16.2;;
64018;SDS011;66942;52.138;5.216;2023-03-18T02:00:19;15.3;;;13.9;;
64018;SDS011;66942;52.138;5.216;2023-03-18T02:01:57;17.0;;;15.6;;
64018;SDS011;66942;52.138;5.216;2023-03-18T02:05:17;16.4;;;15.0;;
64018;SDS011;66942;52.138;5.216;2023-03-18T02:06:58;17.61;;;16.0;;
64018;SDS011;66942;52.138;5.216;2023-03-18T02:08:36;15.1;;;13.9;;
64018;SDS011;66942;52.138;5.216;2023-03-18T02:10:14;16.61;;;15.2;;
64018;SDS011;66942;52.138;5.216;2023-03-18T02:13:32;17.7;;;16.11;;
64018;SDS011;66942;52.138;5.216;2023-03-18T02:15:13;17.61;;;16.11;;
64018;SDS011;66942;52.138;5.216;2023-03-18T02:16:54;18.5;;;16.9;;
64018;SDS011;66942;52.138;5.216;2023-03-18T02:18:40;19.8;;;17.8;;
64018;SDS011;66942;52.138;5.216;2023-03-18T02:22:16;16.9;;;15.4;;
64018;SDS011;66942;52.138;5.216;2023-03-18T02:24:02;18.0;;;16.4;;
64018;SDS011;66942;52.138;5.216;2023-03-18T02:25:54;17.5;;;16.2;;
64018;SDS011;66942;52.138;5.216;2023-03-18T02:27:38;20.11;;;18.41;;
64018;SDS011;66942;52.138;5.216;2023-03-18T02:29:16;18.8;;;17.11;;
64018;SDS011;66942;52.138;5.216;2023-03-18T02:30:56;20.0;;;18.3;;
64018;SDS011;66942;52.138;5.216;2023-03-18T02:34:15;20.6;;;18.91;;
64018;SDS011;66942;52.138;5.216;2023-03-18T02:35:53;21.5;;;19.61;;
64018;SDS011;66942;52.138;5.216;2023-03-18T02:37:38;21.1;;;19.2;;
64018;SDS011;66942;52.138;5.216;2023-03-18T02:40:52;21.8;;;19.91;;
64018;SDS011;66942;52.138;5.216;2023-03-18T02:42:29;22.1;;;20.0;;
64018;SDS011;66942;52.138;5.216;2023-03-18T02:44:06;23.3;;;21.3;;
64018;SDS011;66942;52.138;5.216;2023-03-18T02:45:44;21.5;;;19.7;;
64018;SDS011;66942;52.138;5.216;2023-03-18T02:49:15;22.3;;;20.41;;
64018;SDS011;66942;52.138;5.216;2023-03-18T02:50:53;20.8;;;19.11;;
64018;SDS011;66942;52.138;5.216;2023-03-18T02:52:30;22.4;;;20.5;;
64018;SDS011;66942;52.138;5.216;2023-03-18T02:54:07;23.3;;;21.3;;
64018;SDS011;66942;52.138;5.216;2023-03-18T02:57:23;22.0;;;20.11;;
64018;SDS011;66942;52.138;5.216;2023-03-18T02:58:59;23.5;;;21.5;;
64018;SDS011;66942;52.138;5.216;2023-03-18T03:00:35;22.5;;;20.5;;
64018;SDS011;66942;52.138;5.216;2023-03-18T03:03:48;23.4;;;21.4;;
64018;SDS011;66942;52.138;5.216;2023-03-18T03:05:25;25.0;;;22.6;;
64018;SDS011;66942;52.138;5.216;2023-03-18T03:07:01;23.4;;;21.4;;
64018;SDS011;66942;52.138;5.216;2023-03-18T03:08:38;24.7;;;22.3;;
64018;SDS011;66942;52.138;5.216;2023-03-18T03:11:51;23.2;;;21.3;;
64018;SDS011;66942;52.138;5.216;2023-03-18T03:13:27;23.2;;;21.0;;
64018;SDS011;66942;52.138;5.216;2023-03-18T03:15:03;23.3;;;21.2;;
64018;SDS011;66942;52.138;5.216;2023-03-18T03:18:17;22.3;;;20.41;;
64018;SDS011;66942;52.138;5.216;2023-03-18T03:19:53;23.5;;;21.5;;
64018;SDS011;66942;52.138;5.216;2023-03-18T03:21:29;26.7;;;24.3;;
64018;SDS011;66942;52.138;5.216;2023-03-18T03:24:47;25.9;;;23.6;;
64018;SDS011;66942;52.138;5.216;2023-03-18T03:26:23;27.8;;;25.2;;
64018;SDS011;66942;52.138;5.216;2023-03-18T03:27:59;26.8;;;24.5;;
64018;SDS011;66942;52.138;5.216;2023-03-18T03:29:35;27.4;;;25.0;;
64018;SDS011;66942;52.138;5.216;2023-03-18T03:32:47;26.8;;;24.2;;
64018;SDS011;66942;52.138;5.216;2023-03-18T03:34:24;26.0;;;23.8;;
64018;SDS011;66942;52.138;5.216;2023-03-18T03:36:00;25.9;;;23.6;;
64018;SDS011;66942;52.138;5.216;2023-03-18T03:39:13;27.8;;;25.3;;
64018;SDS011;66942;52.138;5.216;2023-03-18T03:40:49;27.0;;;24.4;;
64018;SDS011;66942;52.138;5.216;2023-03-18T03:42:25;27.5;;;25.1;;
64018;SDS011;66942;52.138;5.216;2023-03-18T03:45:37;28.3;;;25.7;;
64018;SDS011;66942;52.138;5.216;2023-03-18T03:47:13;25.4;;;23.1;;
64018;SDS011;66942;52.138;5.216;2023-03-18T03:48:49;27.1;;;24.8;;
64018;SDS011;66942;52.138;5.216;2023-03-18T03:50:26;27.0;;;24.4;;
64018;SDS011;66942;52.138;5.216;2023-03-18T03:53:39;25.2;;;23.1;;
64018;SDS011;66942;52.138;5.216;2023-03-18T03:55:17;25.7;;;23.5;;
64018;SDS011;66942;52.138;5.216;2023-03-18T03:56:55;25.9;;;23.6;;
64018;SDS011;66942;52.138;5.216;2023-03-18T04:00:08;25.9;;;23.6;;
64018;SDS011;66942;52.138;5.216;2023-03-18T04:01:49;26.1;;;23.8;;
64018;SDS011;66942;52.138;5.216;2023-03-18T04:03:25;25.0;;;22.8;;
64018;SDS011;66942;52.138;5.216;2023-03-18T04:06:38;26.3;;;24.0;;
64018;SDS011;66942;52.138;5.216;2023-03-18T04:08:14;26.4;;;24.0;;
64018;SDS011;66942;52.138;5.216;2023-03-18T04:09:51;25.0;;;22.6;;
64018;SDS011;66942;52.138;5.216;2023-03-18T04:11:27;24.0;;;22.0;;
64018;SDS011;66942;52.138;5.216;2023-03-18T04:14:40;22.6;;;20.6;;
64018;SDS011;66942;52.138;5.216;2023-03-18T04:16:16;27.4;;;24.6;;
64018;SDS011;66942;52.138;5.216;2023-03-18T04:17:52;26.4;;;23.9;;
64018;SDS011;66942;52.138;5.216;2023-03-18T04:21:05;25.4;;;23.1;;
64018;SDS011;66942;52.138;5.216;2023-03-18T04:22:41;23.5;;;21.4;;
64018;SDS011;66942;52.138;5.216;2023-03-18T04:24:19;24.2;;;22.1;;
64018;SDS011;66942;52.138;5.216;2023-03-18T04:27:32;25.0;;;22.8;;
64018;SDS011;66942;52.138;5.216;2023-03-18T04:29:09;24.6;;;22.6;;
64018;SDS011;66942;52.138;5.216;2023-03-18T04:30:46;24.6;;;22.6;;
64018;SDS011;66942;52.138;5.216;2023-03-18T04:32:22;25.2;;;22.9;;
64018;SDS011;66942;52.138;5.216;2023-03-18T04:35:34;24.5;;;22.3;;
64018;SDS011;66942;52.138;5.216;2023-03-18T04:37:10;26.6;;;23.9;;
64018;SDS011;66942;52.138;5.216;2023-03-18T04:38:48;24.2;;;22.2;;
64018;SDS011;66942;52.138;5.216;2023-03-18T04:42:00;25.6;;;23.3;;
64018;SDS011;66942;52.138;5.216;2023-03-18T04:43:36;24.9;;;22.6;;
64018;SDS011;66942;52.138;5.216;2023-03-18T04:45:13;24.5;;;22.2;;
64018;SDS011;66942;52.138;5.216;2023-03-18T04:48:27;23.9;;;21.7;;
64018;SDS011;66942;52.138;5.216;2023-03-18T04:50:04;24.5;;;22.4;;
64018;SDS011;66942;52.138;5.216;2023-03-18T04:51:41;25.8;;;23.3;;
64018;SDS011;66942;52.138;5.216;2023-03-18T04:53:17;24.6;;;22.5;;
64018;SDS011;66942;52.138;5.216;2023-03-18T04:56:29;23.3;;;21.1;;
64018;SDS011;66942;52.138;5.216;2023-03-18T04:58:05;24.4;;;22.1;;
64018;SDS011;66942;52.138;5.216;2023-03-18T04:59:41;24.9;;;22.7;;
64018;SDS011;66942;52.138;5.216;2023-03-18T05:02:55;24.8;;;22.3;;
64018;SDS011;66942;52.138;5.216;2023-03-18T05:04:32;24.1;;;21.9;;
64018;SDS011;66942;52.138;5.216;2023-03-18T05:06:08;24.0;;;21.7;;
64018;SDS011;66942;52.138;5.216;2023-03-18T05:07:55;25.1;;;22.6;;
64018;SDS011;66942;52.138;5.216;2023-03-18T05:11:07;24.6;;;22.2;;
64018;SDS011;66942;52.138;5.216;2023-03-18T05:12:43;26.3;;;23.7;;
64018;SDS011;66942;52.138;5.216;2023-03-18T05:14:20;24.6;;;22.4;;
64018;SDS011;66942;52.138;5.216;2023-03-18T05:17:33;24.1;;;21.9;;
64018;SDS011;66942;52.138;5.216;2023-03-18T05:19:09;24.6;;;22.3;;
64018;SDS011;66942;52.138;5.216;2023-03-18T05:20:45;25.8;;;23.2;;
64018;SDS011;66942;52.138;5.216;2023-03-18T05:23:58;25.1;;;22.7;;
64018;SDS011;66942;52.138;5.216;2023-03-18T05:25:34;24.5;;;22.3;;
64018;SDS011;66942;52.138;5.216;2023-03-18T05:27:11;25.3;;;22.8;;
64018;SDS011;66942;52.138;5.216;2023-03-18T05:28:48;24.1;;;21.9;;
64018;SDS011;66942;52.138;5.216;2023-03-18T05:32:01;23.3;;;21.1;;
64018;SDS011;66942;52.138;5.216;2023-03-18T05:33:37;25.3;;;23.0;;
64018;SDS011;66942;52.138;5.216;2023-03-18T05:35:13;25.6;;;23.2;;
64018;SDS011;66942;52.138;5.216;2023-03-18T05:38:25;24.0;;;21.7;;
64018;SDS011;66942;52.138;5.216;2023-03-18T05:40:01;23.7;;;21.5;;
64018;SDS011;66942;52.138;5.216;2023-03-18T05:41:38;23.3;;;21.0;;
64018;SDS011;66942;52.138;5.216;2023-03-18T05:44:50;23.9;;;21.5;;
64018;SDS011;66942;52.138;5.216;2023-03-18T05:46:27;23.1;;;20.9;;
64018;SDS011;66942;52.138;5.216;2023-03-18T05:48:03;23.8;;;21.8;;
64018;SDS011;66942;52.138;5.216;2023-03-18T05:49:41;25.2;;;22.9;;
64018;SDS011;66942;52.138;5.216;2023-03-18T05:52:53;25.3;;;23.0;;
64018;SDS011;66942;52.138;5.216;2023-03-18T05:54:29;24.5;;;22.3;;
64018;SDS011;66942;52.138;5.216;2023-03-18T05:56:06;23.8;;;21.7;;
64018;SDS011;66942;52.138;5.216;2023-03-18T05:59:19;23.6;;;21.5;;
64018;SDS011;66942;52.138;5.216;2023-03-18T06:00:58;23.9;;;21.8;;
64018;SDS011;66942;52.138;5.216;2023-03-18T06:02:34;25.0;;;22.9;;
64018;SDS011;66942;52.138;5.216;2023-03-18T06:05:46;26.0;;;23.7;;
64018;SDS011;66942;52.138;5.216;2023-03-18T06:07:22;25.0;;;22.8;;
64018;SDS011;66942;52.138;5.216;2023-03-18T06:08:58;24.9;;;22.6;;
64018;SDS011;66942;52.138;5.216;2023-03-18T06:10:34;24.5;;;22.2;;
64018;SDS011;66942;52.138;5.216;2023-03-18T06:13:47;24.0;;;21.7;;
64018;SDS011;66942;52.138;5.216;2023-03-18T06:15:23;25.1;;;22.8;;
64018;SDS011;66942;52.138;5.216;2023-03-18T06:16:59;25.7;;;23.4;;
64018;SDS011;66942;52.138;5.216;2023-03-18T06:20:12;24.0;;;22.0;;
64018;SDS011;66942;52.138;5.216;2023-03-18T06:21:49;24.1;;;22.1;;
64018;SDS011;66942;52.138;5.216;2023-03-18T06:23:26;25.4;;;23.3;;
64018;SDS011;66942;52.138;5.216;2023-03-18T06:26:40;24.7;;;22.6;;
64018;SDS011;66942;52.138;5.216;2023-03-18T06:28:17;24.9;;;22.6;;
64018;SDS011;66942;52.138;5.216;2023-03-18T06:29:54;24.7;;;22.5;;
64018;SDS011;66942;52.138;5.216;2023-03-18T06:31:30;25.5;;;23.3;;
64018;SDS011;66942;52.138;5.216;2023-03-18T06:34:42;25.6;;;23.4;;
64018;SDS011;66942;52.138;5.216;2023-03-18T06:36:19;25.7;;;23.4;;
64018;SDS011;66942;52.138;5.216;2023-03-18T06:37:56;25.7;;;23.4;;
64018;SDS011;66942;52.138;5.216;2023-03-18T06:41:09;25.3;;;23.2;;
64018;SDS011;66942;52.138;5.216;2023-03-18T06:42:46;24.3;;;22.2;;
64018;SDS011;66942;52.138;5.216;2023-03-18T06:44:22;23.5;;;21.4;;
64018;SDS011;66942;52.138;5.216;2023-03-18T06:47:35;24.2;;;22.2;;
64018;SDS011;66942;52.138;5.216;2023-03-18T06:49:12;22.9;;;20.9;;
64018;SDS011;66942;52.138;5.216;2023-03-18T06:50:49;25.4;;;23.3;;
64018;SDS011;66942;52.138;5.216;2023-03-18T06:52:25;24.7;;;22.6;;
64018;SDS011;66942;52.138;5.216;2023-03-18T06:55:38;24.6;;;22.5;;
64018;SDS011;66942;52.138;5.216;2023-03-18T06:57:14;24.9;;;23.0;;
64018;SDS011;66942;52.138;5.216;2023-03-18T06:58:50;24.4;;;22.5;;
64018;SDS011;66942;52.138;5.216;2023-03-18T07:02:02;25.0;;;22.8;;
64018;SDS011;66942;52.138;5.216;2023-03-18T07:03:39;23.4;;;21.5;;
64018;SDS011;66942;52.138;5.216;2023-03-18T07:05:15;24.1;;;22.2;;
64018;SDS011;66942;52.138;5.216;2023-03-18T07:08:29;23.2;;;21.3;;
64018;SDS011;66942;52.138;5.216;2023-03-18T07:10:06;24.9;;;22.8;;
64018;SDS011;66942;52.138;5.216;2023-03-18T07:11:53;24.0;;;22.0;;
64018;SDS011;66942;52.138;5.216;2023-03-18T07:13:29;24.3;;;22.3;;
64018;SDS011;66942;52.138;5.216;2023-03-18T07:16:42;24.6;;;22.5;;
64018;SDS011;66942;52.138;5.216;2023-03-18T07:18:18;24.9;;;22.6;;
64018;SDS011;66942;52.138;5.216;2023-03-18T07:19:54;25.1;;;22.8;;
64018;SDS011;66942;52.138;5.216;2023-03-18T07:23:07;26.4;;;24.0;;
64018;SDS011;66942;52.138;5.216;2023-03-18T07:24:44;24.0;;;22.0;;
64018;SDS011;66942;52.138;5.216;2023-03-18T07:26:20;24.5;;;22.3;;
64018;SDS011;66942;52.138;5.216;2023-03-18T07:29:34;24.7;;;22.6;;
64018;SDS011;66942;52.138;5.216;2023-03-18T07:31:10;24.3;;;22.2;;
64018;SDS011;66942;52.138;5.216;2023-03-18T07:32:46;24.6;;;22.7;;
64018;SDS011;66942;52.138;5.216;2023-03-18T07:34:22;24.0;;;21.9;;
64018;SDS011;66942;52.138;5.216;2023-03-18T07:37:35;22.5;;;20.6;;
64018;SDS011;66942;52.138;5.216;2023-03-18T07:39:12;22.6;;;20.7;;
64018;SDS011;66942;52.138;5.216;2023-03-18T07:40:49;23.1;;;21.1;;
64018;SDS011;66942;52.138;5.216;2023-03-18T07:44:01;20.11;;;18.41;;
64018;SDS011;66942;52.138;5.216;2023-03-18T07:45:38;20.9;;;19.11;;
64018;SDS011;66942;52.138;5.216;2023-03-18T07:47:14;20.0;;;18.11;;
64018;SDS011;66942;52.138;5.216;2023-03-18T07:50:27;20.8;;;18.8;;
64018;SDS011;66942;52.138;5.216;2023-03-18T07:52:03;21.2;;;19.2;;
64018;SDS011;66942;52.138;5.216;2023-03-18T07:53:39;21.5;;;19.61;;
64018;SDS011;66942;52.138;5.216;2023-03-18T07:55:15;22.9;;;20.6;;
64018;SDS011;66942;52.138;5.216;2023-03-18T07:58:27;21.3;;;19.0;;
64018;SDS011;66942;52.138;5.216;2023-03-18T08:00:03;23.0;;;20.8;;
64018;SDS011;66942;52.138;5.216;2023-03-18T08:01:41;22.7;;;20.7;;
64018;SDS011;66942;52.138;5.216;2023-03-18T08:04:54;22.6;;;20.7;;
64018;SDS011;66942;52.138;5.216;2023-03-18T08:06:30;22.4;;;20.6;;
64018;SDS011;66942;52.138;5.216;2023-03-18T08:08:06;21.6;;;19.8;;
64018;SDS011;66942;52.138;5.216;2023-03-18T08:11:18;23.3;;;21.3;;
64018;SDS011;66942;52.138;5.216;2023-03-18T08:12:55;21.4;;;19.5;;
64018;SDS011;66942;52.138;5.216;2023-03-18T08:14:31;23.1;;;21.2;;
64018;SDS011;66942;52.138;5.216;2023-03-18T08:16:08;22.7;;;20.8;;
64018;SDS011;66942;52.138;5.216;2023-03-18T08:19:20;20.6;;;18.91;;
64018;SDS011;66942;52.138;5.216;2023-03-18T08:20:56;22.0;;;20.2;;
64018;SDS011;66942;52.138;5.216;2023-03-18T08:22:32;20.9;;;19.2;;
64018;SDS011;66942;52.138;5.216;2023-03-18T08:25:46;21.9;;;20.11;;
64018;SDS011;66942;52.138;5.216;2023-03-18T08:27:23;21.3;;;19.5;;
64018;SDS011;66942;52.138;5.216;2023-03-18T08:29:00;20.9;;;19.2;;
64018;SDS011;66942;52.138;5.216;2023-03-18T08:32:14;20.3;;;18.7;;
64018;SDS011;66942;52.138;5.216;2023-03-18T08:33:51;19.7;;;18.2;;
64018;SDS011;66942;52.138;5.216;2023-03-18T08:35:27;21.0;;;19.11;;
64018;SDS011;66942;52.138;5.216;2023-03-18T08:37:03;19.8;;;18.2;;
64018;SDS011;66942;52.138;5.216;2023-03-18T08:40:17;19.5;;;17.8;;
64018;SDS011;66942;52.138;5.216;2023-03-18T08:41:53;19.5;;;17.8;;
64018;SDS011;66942;52.138;5.216;2023-03-18T08:43:30;18.7;;;17.2;;
64018;SDS011;66942;52.138;5.216;2023-03-18T08:46:43;18.11;;;16.61;;
64018;SDS011;66942;52.138;5.216;2023-03-18T08:48:19;17.2;;;15.9;;
64018;SDS011;66942;52.138;5.216;2023-03-18T08:49:57;17.7;;;16.2;;
64018;SDS011;66942;52.138;5.216;2023-03-18T08:53:09;17.41;;;16.2;;
64018;SDS011;66942;52.138;5.216;2023-03-18T08:54:45;17.61;;;16.3;;
64018;SDS011;66942;52.138;5.216;2023-03-18T08:56:22;17.61;;;16.2;;
64018;SDS011;66942;52.138;5.216;2023-03-18T08:57:58;17.7;;;16.4;;
64018;SDS011;66942;52.138;5.216;2023-03-18T09:01:10;18.0;;;16.3;;
64018;SDS011;66942;52.138;5.216;2023-03-18T09:02:47;17.61;;;16.4;;
64018;SDS011;66942;52.138;5.216;2023-03-18T09:04:23;16.61;;;15.2;;
64018;SDS011;66942;52.138;5.216;2023-03-18T09:07:36;17.61;;;16.11;;
64018;SDS011;66942;52.138;5.216;2023-03-18T09:09:13;17.0;;;15.7;;
64018;SDS011;66942;52.138;5.216;2023-03-18T09:10:50;16.0;;;14.8;;
64018;SDS011;66942;52.138;5.216;2023-03-18T09:14:03;15.3;;;14.2;;
64018;SDS011;66942;52.138;5.216;2023-03-18T09:15:39;15.3;;;14.2;;
64018;SDS011;66942;52.138;5.216;2023-03-18T09:17:16;15.1;;;13.9;;
64018;SDS011;66942;52.138;5.216;2023-03-18T09:18:52;15.5;;;14.3;;
64018;SDS011;66942;52.138;5.216;2023-03-18T09:22:05;15.0;;;13.9;;
64018;SDS011;66942;52.138;5.216;2023-03-18T09:23:42;14.5;;;13.4;;
64018;SDS011;66942;52.138;5.216;2023-03-18T09:25:18;15.6;;;14.6;;
64018;SDS011;66942;52.138;5.216;2023-03-18T09:28:32;15.5;;;14.5;;
64018;SDS011;66942;52.138;5.216;2023-03-18T09:30:08;16.0;;;14.8;;
64018;SDS011;66942;52.138;5.216;2023-03-18T09:31:46;16.4;;;15.3;;
64018;SDS011;66942;52.138;5.216;2023-03-18T09:34:58;15.5;;;14.4;;
64018;SDS011;66942;52.138;5.216;2023-03-18T09:36:35;15.7;;;14.5;;
64018;SDS011;66942;52.138;5.216;2023-03-18T09:38:11;15.1;;;14.0;;
64018;SDS011;66942;52.138;5.216;2023-03-18T09:39:50;15.9;;;14.8;;
64018;SDS011;66942;52.138;5.216;2023-03-18T09:43:21;15.4;;;14.2;;
64018;SDS011;66942;52.138;5.216;2023-03-18T09:45:15;15.1;;;14.0;;
64018;SDS011;66942;52.138;5.216;2023-03-18T09:47:03;16.2;;;15.0;;
64018;SDS011;66942;52.138;5.216;2023-03-18T09:48:59;16.0;;;14.9;;
64018;SDS011;66942;52.138;5.216;2023-03-18T09:50:53;16.7;;;15.4;;
64018;SDS011;66942;52.138;5.216;2023-03-18T09:52:42;16.3;;;15.1;;
64018;SDS011;66942;52.138;5.216;2023-03-18T09:56:11;16.3;;;15.0;;
64018;SDS011;66942;52.138;5.216;2023-03-18T09:57:52;17.2;;;16.0;;
64018;SDS011;66942;52.138;5.216;2023-03-18T09:59:35;18.11;;;16.61;;
64018;SDS011;66942;52.138;5.216;2023-03-18T10:01:16;17.61;;;16.3;;
64018;SDS011;66942;52.138;5.216;2023-03-18T10:02:56;18.61;;;17.2;;
64018;SDS011;66942;52.138;5.216;2023-03-18T10:06:19;17.61;;;16.3;;
64018;SDS011;66942;52.138;5.216;2023-03-18T10:07:59;17.8;;;16.5;;
64018;SDS011;66942;52.138;5.216;2023-03-18T10:09:43;18.8;;;17.2;;
64018;SDS011;66942;52.138;5.216;2023-03-18T10:11:24;17.2;;;16.0;;
64018;SDS011;66942;52.138;5.216;2023-03-18T10:14:51;16.61;;;15.4;;
64018;SDS011;66942;52.138;5.216;2023-03-18T10:16:43;17.0;;;15.8;;
64018;SDS011;66942;52.138;5.216;2023-03-18T10:18:37;16.4;;;15.2;;
64018;SDS011;66942;52.138;5.216;2023-03-18T10:20:18;15.2;;;14.2;;
64018;SDS011;66942;52.138;5.216;2023-03-18T10:22:08;13.7;;;12.7;;
64018;SDS011;66942;52.138;5.216;2023-03-18T10:23:58;15.3;;;14.2;;
64018;SDS011;66942;52.138;5.216;2023-03-18T10:27:31;13.1;;;12.1;;
64018;SDS011;66942;52.138;5.216;2023-03-18T10:29:24;12.3;;;11.1;;
64018;SDS011;66942;52.138;5.216;2023-03-18T10:31:13;12.2;;;11.4;;
64018;SDS011;66942;52.138;5.216;2023-03-18T10:33:02;12.7;;;11.7;;
64018;SDS011;66942;52.138;5.216;2023-03-18T10:34:56;12.0;;;11.1;;
64018;SDS011;66942;52.138;5.216;2023-03-18T10:36:49;12.5;;;11.6;;
64018;SDS011;66942;52.138;5.216;2023-03-18T10:38:35;11.8;;;10.8;;
64018;SDS011;66942;52.138;5.216;2023-03-18T10:41:54;11.1;;;10.21;;
64018;SDS011;66942;52.138;5.216;2023-03-18T10:43:34;8.71;;;8.0;;
64018;SDS011;66942;52.138;5.216;2023-03-18T10:45:15;8.2;;;7.7;;
64018;SDS011;66942;52.138;5.216;2023-03-18T10:46:57;8.31;;;7.6;;
64018;SDS011;66942;52.138;5.216;2023-03-18T10:50:17;9.21;;;8.5;;
64018;SDS011;66942;52.138;5.216;2023-03-18T10:51:59;9.1;;;8.31;;
64018;SDS011;66942;52.138;5.216;2023-03-18T10:53:42;10.21;;;9.31;;
64018;SDS011;66942;52.138;5.216;2023-03-18T10:55:27;8.6;;;7.9;;
64018;SDS011;66942;52.138;5.216;2023-03-18T10:58:48;9.71;;;9.0;;
64018;SDS011;66942;52.138;5.216;2023-03-18T11:00:27;10.6;;;9.5;;
64018;SDS011;66942;52.138;5.216;2023-03-18T11:02:13;10.4;;;9.6;;
64018;SDS011;66942;52.138;5.216;2023-03-18T11:03:53;10.8;;;9.81;;
64018;SDS011;66942;52.138;5.216;2023-03-18T11:05:35;11.0;;;10.21;;
64018;SDS011;66942;52.138;5.216;2023-03-18T11:08:59;12.7;;;10.6;;
64018;SDS011;66942;52.138;5.216;2023-03-18T11:10:42;11.4;;;10.5;;
64018;SDS011;66942;52.138;5.216;2023-03-18T11:12:22;10.9;;;10.0;;
64018;SDS011;66942;52.138;5.216;2023-03-18T11:14:03;11.0;;;10.1;;
64018;SDS011;66942;52.138;5.216;2023-03-18T11:17:25;10.5;;;9.6;;
64018;SDS011;66942;52.138;5.216;2023-03-18T11:19:06;11.0;;;10.0;;
64018;SDS011;66942;52.138;5.216;2023-03-18T11:21:01;11.9;;;11.0;;
64018;SDS011;66942;52.138;5.216;2023-03-18T11:22:43;11.2;;;10.4;;
64018;SDS011;66942;52.138;5.216;2023-03-18T11:26:01;10.8;;;9.9;;
64018;SDS011;66942;52.138;5.216;2023-03-18T11:27:43;10.8;;;9.9;;
64018;SDS011;66942;52.138;5.216;2023-03-18T11:29:22;10.4;;;9.6;;
64018;SDS011;66942;52.138;5.216;2023-03-18T11:31:05;10.7;;;9.9;;
64018;SDS011;66942;52.138;5.216;2023-03-18T11:34:29;9.9;;;9.1;;
64018;SDS011;66942;52.138;5.216;2023-03-18T11:36:08;9.71;;;8.9;;
64018;SDS011;66942;52.138;5.216;2023-03-18T11:37:50;8.81;;;8.2;;
64018;SDS011;66942;52.138;5.216;2023-03-18T11:39:27;9.71;;;8.9;;
64018;SDS011;66942;52.138;5.216;2023-03-18T11:42:44;8.31;;;7.7;;
64018;SDS011;66942;52.138;5.216;2023-03-18T11:44:23;8.5;;;7.8;;
64018;SDS011;66942;52.138;5.216;2023-03-18T11:46:05;8.1;;;7.4;;
64018;SDS011;66942;52.138;5.216;2023-03-18T11:47:43;8.2;;;7.5;;
64018;SDS011;66942;52.138;5.216;2023-03-18T11:51:04;9.31;;;7.4;;
64018;SDS011;66942;52.138;5.216;2023-03-18T11:53:12;7.9;;;7.1;;
64018;SDS011;66942;52.138;5.216;2023-03-18T11:55:03;7.8;;;7.1;;
64018;SDS011;66942;52.138;5.216;2023-03-18T11:56:56;6.1;;;5.6;;
64018;SDS011;66942;52.138;5.216;2023-03-18T11:58:45;6.4;;;5.6;;
64018;SDS011;66942;52.138;5.216;2023-03-18T12:01:03;6.2;;;5.11;;
64018;SDS011;66942;52.138;5.216;2023-03-18T12:02:52;6.4;;;5.8;;
64018;SDS011;66942;52.138;5.216;2023-03-18T12:06:29;6.0;;;5.4;;
64018;SDS011;66942;52.138;5.216;2023-03-18T12:09:59;6.2;;;5.6;;
64018;SDS011;66942;52.138;5.216;2023-03-18T12:11:45;6.8;;;5.6;;
64018;SDS011;66942;52.138;5.216;2023-03-18T12:13:36;5.7;;;5.2;;
64018;SDS011;66942;52.138;5.216;2023-03-18T12:15:27;5.8;;;5.3;;
64018;SDS011;66942;52.138;5.216;2023-03-18T12:17:17;7.2;;;5.6;;
64018;SDS011;66942;52.138;5.216;2023-03-18T12:19:07;5.7;;;5.11;;
64018;SDS011;66942;52.138;5.216;2023-03-18T12:21:14;5.8;;;5.3;;
64018;SDS011;66942;52.138;5.216;2023-03-18T12:23:21;5.9;;;5.4;;
64018;SDS011;66942;52.138;5.216;2023-03-18T12:25:37;5.9;;;5.3;;
64018;SDS011;66942;52.138;5.216;2023-03-18T12:27:32;6.6;;;6.0;;
64018;SDS011;66942;52.138;5.216;2023-03-18T12:29:54;6.6;;;6.0;;
64018;SDS011;66942;52.138;5.216;2023-03-18T12:31:45;6.0;;;5.4;;
64018;SDS011;66942;52.138;5.216;2023-03-18T12:33:34;6.9;;;5.6;;
64018;SDS011;66942;52.138;5.216;2023-03-18T12:37:22;7.0;;;5.9;;
64018;SDS011;66942;52.138;5.216;2023-03-18T12:39:46;7.0;;;6.4;;